Terminal Aerodrome Forecast
Issued by NWS Jackson, MS

Home | Current Version | Previous Version | Text Only | Print | Product List | Glossary On
Versions: 1 2 3 4 5 6 7 8 9 10 11 12 13 14
529
FTUS44 KJAN 280527
TAFJAN
TAF
KJAN 280527Z 2806/0106 16010KT P6SM OVC006
     FM280900 16009KT 4SM BR OVC004
     FM281600 18015G23KT P6SM BKN015 BKN025
     FM282000 18015G23KT P6SM BKN025 BKN050
     FM010000 17015G20KT P6SM BKN015 OVC050=

USA.gov is the U.S. government's official web portal to all federal, state and local government web resources and services.